createdAt,value
2022-12-11T08:15:54.899Z,100638.13
2022-12-11T08:18:33.239Z,100638.84
2022-12-11T08:21:11.560Z,100629.13
2022-12-11T08:23:49.970Z,100643.84
2022-12-11T08:26:29.566Z,100633.25
2022-12-11T08:29:08.209Z,100649.75
2022-12-11T08:31:48.421Z,100648.69
2022-12-11T08:34:26.200Z,100643.34
2022-12-11T08:37:03.190Z,100643.34
2022-12-11T08:39:40.659Z,100647.59
2022-12-11T08:42:17.778Z,100645.69
2022-12-11T08:44:55.428Z,100655.25
2022-12-11T08:47:35.369Z,100659.63
2022-12-11T08:50:13.674Z,100658.78
2022-12-11T08:52:50.808Z,100659.72
2022-12-11T08:55:29.091Z,100667.56
2022-12-11T08:58:06.601Z,100663.19
2022-12-11T09:00:45.461Z,100658.00
2022-12-11T09:03:25.539Z,100659.03
2022-12-11T09:06:03.605Z,100666.13
2022-12-11T09:08:44.938Z,100658.38
2022-12-11T09:11:30.156Z,100653.94
2022-12-11T09:14:08.411Z,100667.22
2022-12-11T09:16:47.281Z,100662.94
2022-12-11T09:19:32.073Z,100664.66
2022-12-11T09:22:13.592Z,100665.63
2022-12-11T09:24:51.217Z,100662.34
2022-12-11T09:27:29.766Z,100659.78
2022-12-11T09:30:09.132Z,100658.09
2022-12-11T09:32:48.033Z,100652.97
2022-12-11T09:35:28.081Z,100646.03
2022-12-11T09:38:06.459Z,100645.25
2022-12-11T09:40:48.107Z,100639.22
2022-12-11T09:43:45.663Z,100641.19
2022-12-11T09:46:24.837Z,100647.53
2022-12-11T09:49:05.170Z,100647.56
2022-12-11T09:51:50.517Z,100639.84
2022-12-11T09:54:29.262Z,100644.34
2022-12-11T09:57:18.600Z,100643.38
2022-12-11T10:00:16.012Z,100639.00
2022-12-11T10:03:52.582Z,100642.44
2022-12-11T10:06:35.252Z,100631.31
2022-12-11T10:09:24.690Z,100625.84
2022-12-11T10:12:18.875Z,100631.19
2022-12-11T10:15:23.910Z,100628.59
2022-12-11T10:18:05.305Z,100627.78
2022-12-11T10:20:45.547Z,100621.78
2022-12-11T10:23:29.053Z,100627.78
2022-12-11T10:26:15.902Z,100628.66
2022-12-11T10:28:54.914Z,100629.44
2022-12-11T10:31:45.634Z,100623.31
2022-12-11T10:34:36.654Z,100612.78
2022-12-11T10:37:15.004Z,100601.53
2022-12-11T10:39:52.630Z,100608.44
2022-12-11T10:42:32.613Z,100599.69
2022-12-11T10:45:12.450Z,100595.31
2022-12-11T10:47:52.064Z,100585.84
2022-12-11T10:50:30.147Z,100590.94
2022-12-11T10:53:07.211Z,100579.63
2022-12-11T10:55:50.512Z,100571.59
2022-12-11T10:58:34.629Z,100569.94
2022-12-11T11:01:17.504Z,100558.38
2022-12-11T11:04:03.448Z,100552.22
2022-12-11T11:06:47.502Z,100547.78
2022-12-11T11:09:37.583Z,100551.13
2022-12-11T11:12:31.896Z,100543.94
2022-12-11T11:15:16.791Z,100532.63
2022-12-11T11:18:00.017Z,100534.31
2022-12-11T11:20:39.655Z,100530.66
2022-12-11T11:23:19.745Z,100521.91
2022-12-11T11:25:58.934Z,100526.97
2022-12-11T11:28:41.925Z,100519.09
2022-12-11T11:31:23.500Z,100516.38
2022-12-11T11:34:04.498Z,100511.16
2022-12-11T11:36:41.874Z,100516.25
2022-12-11T11:39:29.710Z,100511.03
2022-12-11T11:42:13.967Z,100509.28
2022-12-11T11:45:13.727Z,100503.09
2022-12-11T11:48:11.053Z,100494.28
2022-12-11T11:50:52.425Z,100495.03
2022-12-11T11:53:37.778Z,100490.53
2022-12-11T11:56:24.832Z,100486.16
2022-12-11T11:59:15.757Z,100479.09
2022-12-11T12:01:53.988Z,100482.47
2022-12-11T12:04:37.935Z,100477.25
2022-12-11T12:07:35.572Z,100480.63
2022-12-11T12:10:23.987Z,100480.50
2022-12-11T12:13:30.164Z,100478.81
2022-12-11T12:16:29.271Z,100480.50
2022-12-11T12:19:17.104Z,100480.50
2022-12-11T12:21:57.217Z,100473.56
2022-12-11T12:24:53.076Z,100471.03
2022-12-11T12:27:57.056Z,100474.50
2022-12-11T12:30:46.509Z,100471.88
2022-12-11T12:33:35.956Z,100462.41
2022-12-11T12:36:25.274Z,100459.81
2022-12-11T12:39:14.527Z,100459.69
2022-12-11T12:42:07.040Z,100461.41
2022-12-11T12:45:01.338Z,100462.31
2022-12-11T12:47:39.227Z,100463.31
2022-12-11T12:50:22.388Z,100451.06
2022-12-11T12:53:00.758Z,100446.75
2022-12-11T12:55:41.227Z,100443.34
2022-12-11T12:58:45.227Z,100435.38
2022-12-11T13:01:26.282Z,100437.34
2022-12-11T13:04:20.730Z,100437.19
2022-12-11T13:07:19.545Z,100438.31
2022-12-11T13:10:10.628Z,100433.00
2022-12-11T13:12:51.294Z,100429.59
2022-12-11T13:15:59.037Z,100429.69
2022-12-11T13:18:48.980Z,100439.31
2022-12-11T13:21:42.356Z,100427.28
2022-12-11T13:24:29.827Z,100436.91
2022-12-11T13:27:15.154Z,100438.53
2022-12-11T13:29:55.677Z,100438.53
2022-12-11T13:32:35.827Z,100435.13
2022-12-11T13:35:21.027Z,100432.50
2022-12-11T13:38:04.703Z,100439.59
2022-12-11T13:40:45.595Z,100431.91
2022-12-11T13:43:27.521Z,100431.09
2022-12-11T13:46:12.771Z,100436.31
2022-12-11T13:48:55.757Z,100434.94
2022-12-11T13:51:37.448Z,100428.06
2022-12-11T13:54:21.517Z,100435.16
2022-12-11T13:57:06.281Z,100434.16
2022-12-11T14:00:01.342Z,100433.31
2022-12-11T14:02:44.070Z,100438.69
2022-12-11T14:05:41.308Z,100433.59
2022-12-11T14:08:30.833Z,100434.28
2022-12-11T14:11:09.361Z,100434.44
2022-12-11T14:13:46.337Z,100441.44
2022-12-11T14:16:27.198Z,100425.66
2022-12-11T14:19:11.320Z,100424.81
2022-12-11T14:22:04.811Z,100416.19
2022-12-11T14:24:54.352Z,100405.72
2022-12-11T14:27:33.028Z,100413.53
2022-12-11T14:30:16.037Z,100396.97
2022-12-11T14:32:56.622Z,100397.09
2022-12-11T14:35:44.397Z,100399.63
2022-12-11T14:38:28.153Z,100405.03
2022-12-11T14:41:16.519Z,100407.44
2022-12-11T14:44:00.398Z,100397.88
2022-12-11T14:46:47.117Z,100397.88
2022-12-11T14:49:32.750Z,100398.66
2022-12-11T14:52:23.737Z,100399.47
2022-12-11T14:55:10.949Z,100394.28
2022-12-11T14:57:52.813Z,100387.28
2022-12-11T15:00:45.496Z,100390.88
2022-12-11T15:03:42.201Z,100384.91
2022-12-11T15:06:36.719Z,100384.78
2022-12-11T15:09:29.119Z,100382.94
2022-12-11T15:12:22.188Z,100385.72
2022-12-11T15:15:07.538Z,100382.94
2022-12-11T15:17:55.768Z,100378.66
2022-12-11T15:20:43.597Z,100375.09
2022-12-11T15:23:34.831Z,100372.50
2022-12-11T15:26:18.879Z,100370.69
2022-12-11T15:29:32.356Z,100370.59
2022-12-11T15:32:31.378Z,100377.47
2022-12-11T15:35:34.708Z,100368.69
2022-12-11T15:38:44.937Z,100364.47
2022-12-11T15:41:36.321Z,100363.66
2022-12-11T15:44:28.407Z,100363.31
2022-12-11T15:47:37.339Z,100367.50
2022-12-11T15:50:25.871Z,100357.94
2022-12-11T15:53:04.049Z,100365.81
2022-12-11T15:55:42.556Z,100361.47
2022-12-11T15:58:27.695Z,100366.72
2022-12-11T16:01:06.173Z,100356.25
2022-12-11T16:03:46.259Z,100351.00
2022-12-11T16:06:24.131Z,100349.19
2022-12-11T16:09:04.466Z,100340.41
2022-12-11T16:11:44.927Z,100334.28
2022-12-11T16:14:26.977Z,100334.06
2022-12-11T16:17:04.854Z,100334.09
2022-12-11T16:19:45.480Z,100338.31
2022-12-11T16:22:25.654Z,100326.00
2022-12-11T16:25:03.388Z,100313.81
2022-12-11T16:27:42.106Z,100320.75
2022-12-11T16:30:25.169Z,100320.63
2022-12-11T16:33:11.762Z,100313.69
2022-12-11T16:35:51.347Z,100308.31
2022-12-11T16:38:28.535Z,100308.31
2022-12-11T16:41:07.497Z,100308.31
2022-12-11T16:43:46.777Z,100304.75
2022-12-11T16:46:28.317Z,100301.09
2022-12-11T16:49:06.165Z,100296.75
2022-12-11T16:51:45.306Z,100301.09
2022-12-11T16:54:23.946Z,100293.25
2022-12-11T16:57:01.800Z,100298.34
2022-12-11T16:59:39.584Z,100292.88
2022-12-11T17:02:21.775Z,100286.78
2022-12-11T17:04:59.075Z,100280.56
2022-12-11T17:07:38.015Z,100285.66
2022-12-11T17:10:15.848Z,100282.94
2022-12-11T17:12:53.446Z,100280.09
2022-12-11T17:15:30.982Z,100265.25
2022-12-11T17:18:12.077Z,100259.16
2022-12-11T17:20:50.127Z,100258.16
2022-12-11T17:23:30.446Z,100259.06
2022-12-11T17:26:10.538Z,100262.31
2022-12-11T17:28:52.903Z,100258.03
2022-12-11T17:31:31.714Z,100248.41
2022-12-11T17:34:13.977Z,100259.56
2022-12-11T17:36:56.758Z,100256.84
2022-12-11T17:39:35.793Z,100249.09
2022-12-11T17:42:19.786Z,100250.78
2022-12-11T17:44:58.785Z,100243.00
2022-12-11T17:47:36.813Z,100245.69
2022-12-11T17:50:20.295Z,100240.38
2022-12-11T17:52:58.865Z,100248.09
2022-12-11T17:55:50.155Z,100246.38
2022-12-11T17:58:32.797Z,100252.41
2022-12-11T18:01:16.255Z,100241.84
2022-12-11T18:03:55.049Z,100249.63
2022-12-11T18:06:36.548Z,100242.84
2022-12-11T18:09:14.924Z,100247.22
2022-12-11T18:11:53.685Z,100248.00
2022-12-11T18:14:31.900Z,100243.72
2022-12-11T18:17:13.054Z,100248.84
2022-12-11T18:19:54.618Z,100228.00
2022-12-11T18:22:39.367Z,100240.84
2022-12-11T18:25:19.814Z,100240.00
2022-12-11T18:28:00.505Z,100233.09
2022-12-11T18:30:41.795Z,100236.63
2022-12-11T18:33:22.497Z,100236.75
2022-12-11T18:36:04.121Z,100215.66
2022-12-11T18:38:47.477Z,100223.53
2022-12-11T18:41:26.395Z,100229.84
2022-12-11T18:44:09.691Z,100226.00
2022-12-11T18:46:49.211Z,100218.91
2022-12-11T18:49:28.217Z,100220.00
2022-12-11T18:52:09.986Z,100217.19
2022-12-11T18:54:57.639Z,100218.91
2022-12-11T18:57:38.435Z,100217.06
2022-12-11T19:00:23.118Z,100202.19
2022-12-11T19:03:04.284Z,100206.44
2022-12-11T19:05:46.045Z,100199.63
2022-12-11T19:08:25.027Z,100194.25
2022-12-11T19:11:08.563Z,100196.72
2022-12-11T19:13:52.458Z,100193.34
2022-12-11T19:16:37.233Z,100188.84
2022-12-11T19:19:25.085Z,100201.03
2022-12-11T19:22:06.617Z,100189.84
2022-12-11T19:24:49.139Z,100192.56
2022-12-11T19:27:32.717Z,100181.09
2022-12-11T19:30:15.178Z,100188.84
2022-12-11T19:33:02.694Z,100191.38
2022-12-11T19:35:42.557Z,100191.47
2022-12-11T19:38:24.054Z,100192.38
2022-12-11T19:41:04.574Z,100190.72
2022-12-11T19:43:50.803Z,100192.25
2022-12-11T19:46:31.566Z,100193.94
2022-12-11T19:49:14.990Z,100190.38
2022-12-11T19:51:53.536Z,100189.47
2022-12-11T19:54:40.788Z,100187.94
2022-12-11T19:57:24.915Z,100193.78
2022-12-11T20:00:09.663Z,100189.63
2022-12-11T20:02:54.299Z,100187.84
2022-12-11T20:05:41.014Z,100182.63
2022-12-11T20:11:25.152Z,100178.06
2022-12-11T20:14:05.987Z,100183.28
2022-12-11T20:19:53.198Z,100183.28
2022-12-11T20:22:32.269Z,100181.28
2022-12-11T20:25:15.376Z,100175.28
2022-12-11T20:28:05.432Z,100179.63
2022-12-11T20:30:50.971Z,100181.47
2022-12-11T20:33:38.440Z,100185.91
2022-12-11T20:36:29.168Z,100182.53
2022-12-11T20:39:10.529Z,100174.66
2022-12-11T20:41:50.289Z,100176.38
2022-12-11T20:44:30.030Z,100164.91
2022-12-11T20:47:10.989Z,100170.19
2022-12-11T20:49:56.248Z,100166.66
2022-12-11T20:52:35.444Z,100164.97
2022-12-11T20:55:19.439Z,100157.09
2022-12-11T20:58:02.752Z,100162.34
2022-12-11T21:00:44.601Z,100165.75
2022-12-11T21:03:29.391Z,100166.56
2022-12-11T21:06:14.500Z,100163.81
2022-12-11T21:08:53.963Z,100169.13
2022-12-11T21:11:37.429Z,100157.81
2022-12-11T21:14:17.308Z,100155.09
2022-12-11T21:16:56.110Z,100160.31
2022-12-11T21:19:35.022Z,100150.84
2022-12-11T21:22:17.306Z,100145.63
2022-12-11T21:24:55.211Z,100139.56
2022-12-11T21:27:34.924Z,100137.53
2022-12-11T21:30:13.502Z,100127.97
2022-12-11T21:33:02.603Z,100130.69
2022-12-11T21:35:44.961Z,100130.59
2022-12-11T21:38:25.911Z,100132.31
2022-12-11T21:41:11.801Z,100128.84
2022-12-11T21:45:03.416Z,100123.66
2022-12-11T21:46:52.020Z,100136.69
2022-12-11T21:49:30.463Z,100137.34
2022-12-11T21:52:10.483Z,100128.84
2022-12-11T21:54:50.930Z,100127.22
2022-12-11T21:57:28.621Z,100131.75
2022-12-11T22:00:08.153Z,100129.06
2022-12-11T22:02:50.419Z,100120.34
2022-12-11T22:05:31.682Z,100117.59
2022-12-11T22:08:14.100Z,100109.78
2022-12-11T22:10:56.572Z,100114.88
2022-12-11T22:13:34.111Z,100109.63
2022-12-11T22:16:13.598Z,100120.13
2022-12-11T22:18:51.160Z,100105.41
